Time;durP1;ratioP1;P1;durP2;ratioP2;P2;SDS_P1;SDS_P2;PMS_P1;PMS_P2;Temp;Humidity;BMP_temperature;BMP_pressure;BME280_temperature;BME280_humidity;BME280_pressure;Samples;Min_cycle;Max_cycle;Signal;HPM_P1;HPM_P2
2022/11/16 00:01:20;;;;;;;84.67;54.30;;;;;;;6.76;96.32;99525.95;2889773;79;20983;-88
2022/11/16 00:05:22;;;;;;;76.80;50.03;;;;;;;6.62;98.07;99513.31;2861923;81;21024;-89
2022/11/16 00:09:25;;;;;;;87.02;50.20;;;;;;;6.65;99.34;99502.50;2935636;79;21037;-88
2022/11/16 00:13:26;;;;;;;77.35;50.52;;;;;;;6.52;100.00;99495.19;2939883;79;21538;-88
2022/11/16 00:17:28;;;;;;;84.83;54.95;;;;;;;6.48;100.00;99491.08;2944079;79;21047;-88
2022/11/16 00:21:31;;;;;;;75.50;51.05;;;;;;;6.57;100.00;99485.09;2911745;79;20964;-88
2022/11/16 00:25:33;;;;;;;79.60;51.10;;;;;;;6.73;100.00;99482.58;2913869;79;21114;-88
2022/11/16 00:29:35;;;;;;;83.25;52.33;;;;;;;6.74;100.00;99481.62;2927887;79;21003;-87
2022/11/16 00:33:36;;;;;;;79.10;51.88;;;;;;;6.85;100.00;99490.37;2891911;79;21050;-87
2022/11/16 00:37:38;;;;;;;67.75;47.27;;;;;;;6.94;100.00;99487.48;2884235;80;21529;-87
2022/11/16 00:41:41;;;;;;;58.45;38.58;;;;;;;7.06;100.00;99486.12;2887602;80;21063;-87
2022/11/16 00:45:43;;;;;;;61.60;40.67;;;;;;;7.05;100.00;99487.09;2847744;82;21013;-87
2022/11/16 00:49:45;;;;;;;66.10;45.78;;;;;;;7.07;100.00;99476.77;2820857;82;21009;-87
2022/11/16 00:53:47;;;;;;;60.20;41.40;;;;;;;7.13;100.00;99478.08;2823909;82;21028;-87
2022/11/16 00:57:48;;;;;;;53.60;40.23;;;;;;;6.91;100.00;99482.45;2871295;80;21395;-88
2022/11/16 01:01:50;;;;;;;62.35;40.48;;;;;;;6.82;100.00;99476.55;2873710;81;21018;-87
2022/11/16 01:05:51;;;;;;;62.30;42.83;;;;;;;6.90;100.00;99474.63;2879932;81;20969;-87
2022/11/16 01:09:53;;;;;;;55.35;36.05;;;;;;;7.04;100.00;99473.52;2853109;81;21000;-86
2022/11/16 01:13:55;;;;;;;57.75;42.80;;;;;;;6.97;100.00;99475.34;2827598;82;21020;-87
2022/11/16 01:17:56;;;;;;;70.15;44.08;;;;;;;6.84;100.00;99476.80;2926696;79;20955;-87
2022/11/16 01:21:58;;;;;;;71.77;45.40;;;;;;;6.71;100.00;99483.55;2918375;79;21534;-87
2022/11/16 01:26:02;;;;;;;84.13;52.10;;;;;;;6.70;100.00;99492.44;2902629;79;21118;-87
2022/11/16 01:30:07;;;;;;;61.42;45.38;;;;;;;6.40;100.00;99494.34;2952047;79;21071;-87
2022/11/16 01:34:09;;;;;;;67.90;48.38;;;;;;;6.38;100.00;99485.67;2906625;78;21019;-87
2022/11/16 01:38:10;;;;;;;74.72;51.60;;;;;;;6.32;100.00;99479.08;2955344;79;21043;-88
2022/11/16 01:42:22;;;;;;;76.90;48.98;;;;;;;6.26;100.00;99478.22;2937596;79;21004;-88
2022/11/16 01:46:25;;;;;;;82.40;52.65;;;;;;;6.19;100.00;99477.02;2870279;81;20987;-88
2022/11/16 01:50:27;;;;;;;80.83;53.05;;;;;;;6.23;100.00;99477.98;2811522;82;20996;-88
2022/11/16 01:54:30;;;;;;;84.62;57.62;;;;;;;6.29;100.00;99481.47;2941535;79;21467;-88
2022/11/16 01:58:32;;;;;;;84.47;55.25;;;;;;;6.39;100.00;99471.03;2910123;79;21015;-88
2022/11/16 02:02:33;;;;;;;76.75;50.75;;;;;;;6.56;100.00;99456.99;2926574;79;20992;-88
2022/11/16 02:07:10;;;;;;;91.65;55.03;;;;;;;6.76;100.00;99455.90;2903322;79;21002;-88
2022/11/16 02:11:38;;;;;;;86.25;53.23;;;;;;;6.93;100.00;99450.11;2953683;79;20992;-88
2022/11/16 02:15:51;;;;;;;80.92;52.67;;;;;;;7.02;100.00;99438.42;2940721;79;21010;-88
2022/11/16 02:20:18;;;;;;;82.17;57.55;;;;;;;7.00;100.00;99426.17;2954581;79;21468;-88
2022/11/16 02:24:42;;;;;;;78.30;51.65;;;;;;;6.91;100.00;99413.70;2930834;78;21677;-89
2022/11/16 02:28:48;;;;;;;67.37;49.05;;;;;;;6.84;100.00;99410.71;2944541;79;20980;-87
2022/11/16 02:32:58;;;;;;;82.40;51.05;;;;;;;6.78;100.00;99416.97;2886384;79;21015;-88
2022/11/16 02:37:04;;;;;;;81.17;53.45;;;;;;;6.86;100.00;99415.39;2926052;79;21345;-88
2022/11/16 02:41:19;;;;;;;71.70;52.70;;;;;;;6.93;100.00;99419.70;2945068;79;21024;-88
2022/11/16 02:45:27;;;;;;;85.22;53.45;;;;;;;7.02;100.00;99414.63;2909378;79;21569;-88
2022/11/16 02:49:33;;;;;;;76.33;47.62;;;;;;;7.09;100.00;99417.16;2934271;79;21606;-88
2022/11/16 02:53:42;;;;;;;87.20;54.63;;;;;;;7.05;100.00;99415.69;2868751;81;21523;-87
2022/11/16 02:58:05;;;;;;;81.12;50.73;;;;;;;7.03;100.00;99422.45;2808604;82;22311;-87
2022/11/16 03:02:18;;;;;;;84.20;52.98;;;;;;;7.11;100.00;99420.51;2873338;81;21182;-88
2022/11/16 03:06:30;;;;;;;73.75;52.43;;;;;;;7.26;100.00;99419.73;2842380;82;20999;-88
2022/11/16 03:15:00;;;;;;;84.07;51.05;;;;;;;7.44;100.00;99414.72;2855354;82;21046;-88
2022/11/16 03:19:10;;;;;;;84.10;54.18;;;;;;;7.54;100.00;99414.79;2833766;82;21068;-87
2022/11/16 03:23:13;;;;;;;74.58;52.62;;;;;;;7.58;100.00;99405.65;2824001;82;21605;-88
2022/11/16 03:27:46;;;;;;;105.10;53.63;;;;;;;7.64;100.00;99405.59;2843429;82;20987;-88
2022/11/16 03:31:51;;;;;;;82.17;54.75;;;;;;;7.69;100.00;99404.75;2856908;80;21021;-88
2022/11/16 03:36:10;;;;;;;86.97;52.60;;;;;;;7.68;100.00;99397.78;2837791;82;21013;-88
2022/11/16 03:40:13;;;;;;;79.07;54.08;;;;;;;7.63;100.00;99398.16;2827138;82;21504;-88
2022/11/16 03:44:18;;;;;;;82.40;54.00;;;;;;;7.64;100.00;99392.36;2838204;82;20995;-88
2022/11/16 03:48:19;;;;;;;87.15;54.20;;;;;;;7.70;100.00;99391.87;2827500;79;20988;-88
2022/11/16 03:52:20;;;;;;;89.87;57.70;;;;;;;7.75;100.00;99390.98;2920370;79;21533;-87
2022/11/16 03:56:22;;;;;;;79.58;53.95;;;;;;;7.76;100.00;99395.31;2941638;79;20960;-87
2022/11/16 04:00:23;;;;;;;93.65;56.48;;;;;;;7.83;100.00;99392.48;2934814;79;20968;-88
2022/11/16 04:26:11;;;;;;;;;;;;;;;8.15;100.00;99371.69;2932137;79;20996;-87
2022/11/16 04:30:13;;;;;;;118.45;75.30;;;;;;;8.13;100.00;99370.98;2930012;79;20124;-87
2022/11/16 04:38:34;;;;;;;123.55;79.10;;;;;;;8.21;100.00;99371.65;2922674;79;20993;-87
2022/11/16 04:42:35;;;;;;;114.72;75.97;;;;;;;8.18;100.00;99379.02;2827330;82;21021;-88
2022/11/16 04:50:57;;;;;;;121.47;67.55;;;;;;;8.05;100.00;99375.27;2923705;79;20969;-88
2022/11/16 04:54:58;;;;;;;107.20;64.00;;;;;;;8.03;100.00;99378.03;2952850;79;21051;-88
2022/11/16 04:58:59;;;;;;;129.75;73.42;;;;;;;7.97;100.00;99378.09;2916583;79;21004;-88
2022/11/16 05:03:05;;;;;;;106.95;65.75;;;;;;;7.88;100.00;99368.78;2930552;79;21638;-89
2022/11/16 05:07:13;;;;;;;86.60;55.73;;;;;;;7.80;100.00;99363.63;2905926;79;20959;-89
2022/11/16 05:11:14;;;;;;;87.15;55.75;;;;;;;7.75;100.00;99367.16;2925277;79;21015;-89
2022/11/16 05:15:18;;;;;;;93.52;56.75;;;;;;;7.59;100.00;99358.36;2923506;79;21582;-88
2022/11/16 05:27:58;;;;;;;85.07;50.95;;;;;;;7.56;100.00;99356.80;2920555;79;21501;-87
2022/11/16 05:31:59;;;;;;;78.25;47.35;;;;;;;7.63;100.00;99361.57;2853884;79;21001;-89
2022/11/16 05:36:00;;;;;;;71.10;47.43;;;;;;;7.63;100.00;99364.22;2848945;79;21038;-87
2022/11/16 05:40:02;;;;;;;68.80;47.73;;;;;;;7.56;100.00;99362.09;2936985;79;20968;-87
2022/11/16 05:44:04;;;;;;;68.40;42.73;;;;;;;7.54;100.00;99352.59;2945728;79;20974;-88
2022/11/16 05:48:05;;;;;;;71.42;45.00;;;;;;;7.54;100.00;99356.09;2933778;79;21011;-87
2022/11/16 05:52:07;;;;;;;74.95;47.90;;;;;;;7.55;100.00;99341.89;2949762;79;21054;-87
2022/11/16 05:56:08;;;;;;;70.62;44.85;;;;;;;7.57;100.00;99341.78;2916734;79;21038;-87
2022/11/16 06:00:11;;;;;;;74.65;46.18;;;;;;;7.45;100.00;99335.69;2923808;79;21004;-87
2022/11/16 06:04:13;;;;;;;60.60;44.67;;;;;;;7.46;100.00;99334.72;2935526;79;21106;-88
2022/11/16 06:08:15;;;;;;;74.00;42.65;;;;;;;7.49;100.00;99341.10;2962179;78;20969;-87
2022/11/16 06:12:16;;;;;;;67.82;45.15;;;;;;;7.47;100.00;99332.92;2916402;79;21751;-87
2022/11/16 06:16:17;;;;;;;72.42;45.52;;;;;;;7.42;100.00;99332.83;2936311;79;21018;-88
2022/11/16 06:20:19;;;;;;;78.55;46.50;;;;;;;7.41;100.00;99339.56;2909525;79;20996;-87
2022/11/16 06:24:21;;;;;;;70.40;44.38;;;;;;;7.43;100.00;99342.45;2950041;79;20993;-88
2022/11/16 06:28:23;;;;;;;66.60;45.12;;;;;;;7.43;100.00;99337.63;2933131;79;21505;-87
2022/11/16 06:32:24;;;;;;;69.65;46.63;;;;;;;7.50;100.00;99336.16;2873285;79;21007;-87
2022/11/16 06:36:26;;;;;;;68.92;41.60;;;;;;;7.51;100.00;99332.55;2885663;80;21058;-86
2022/11/16 06:40:27;;;;;;;64.15;42.75;;;;;;;7.57;100.00;99328.55;2948283;79;20968;-88
2022/11/16 06:44:29;;;;;;;62.85;43.55;;;;;;;7.58;100.00;99321.78;2951147;79;20964;-87
2022/11/16 06:48:32;;;;;;;64.35;45.45;;;;;;;7.68;100.00;99315.22;2906001;79;21451;-88
2022/11/16 06:52:33;;;;;;;61.35;42.25;;;;;;;7.71;100.00;99314.13;2914607;79;21007;-87
2022/11/16 06:56:34;;;;;;;64.35;43.25;;;;;;;7.72;100.00;99313.16;2904930;80;21545;-87
2022/11/16 07:00:36;;;;;;;59.10;40.43;;;;;;;7.74;100.00;99310.36;2937675;79;21068;-87
2022/11/16 07:04:37;;;;;;;68.72;42.43;;;;;;;7.77;100.00;99306.98;2921725;79;21007;-87
2022/11/16 07:08:39;;;;;;;59.33;39.98;;;;;;;7.76;100.00;99302.66;2941905;78;20987;-87
2022/11/16 07:12:41;;;;;;;65.37;39.27;;;;;;;7.79;100.00;99302.38;2878586;80;21957;-88
2022/11/16 07:16:42;;;;;;;56.50;40.17;;;;;;;7.82;100.00;99306.59;2948903;77;21054;-88
2022/11/16 07:20:44;;;;;;;61.15;41.25;;;;;;;7.80;100.00;99315.15;2931667;79;21008;-87
2022/11/16 07:24:46;;;;;;;72.78;43.85;;;;;;;7.75;100.00;99310.24;2924665;79;21023;-87
2022/11/16 07:28:47;;;;;;;79.30;42.60;;;;;;;7.75;100.00;99314.69;2870203;79;21598;-87
2022/11/16 07:32:49;;;;;;;65.17;38.73;;;;;;;7.73;100.00;99318.80;2937895;79;21074;-87
2022/11/16 07:36:50;;;;;;;67.47;40.95;;;;;;;7.76;100.00;99312.39;2928106;79;21055;-87
2022/11/16 07:40:52;;;;;;;53.15;35.48;;;;;;;7.77;100.00;99320.22;2931977;79;20952;-88
2022/11/16 07:44:53;;;;;;;60.43;40.20;;;;;;;7.77;100.00;99320.22;2867398;79;20980;-87
2022/11/16 07:48:56;;;;;;;65.17;42.05;;;;;;;7.82;100.00;99323.30;2925170;79;20988;-89
2022/11/16 07:52:57;;;;;;;61.15;38.80;;;;;;;7.84;100.00;99323.17;2886093;79;21044;-89
2022/11/16 07:56:58;;;;;;;59.90;39.08;;;;;;;7.89;100.00;99342.65;2962120;79;21024;-89
2022/11/16 08:01:13;;;;;;;63.42;39.03;;;;;;;7.92;100.00;99338.41;2902272;79;21526;-89
2022/11/16 08:05:15;;;;;;;66.60;39.83;;;;;;;7.95;100.00;99342.11;2930589;79;20979;-89
2022/11/16 08:09:16;;;;;;;62.15;37.10;;;;;;;7.97;100.00;99342.81;2933720;79;21042;-89
2022/11/16 08:13:18;;;;;;;62.25;41.92;;;;;;;8.00;100.00;99349.17;2952448;79;21578;-89
2022/11/16 08:17:19;;;;;;;69.00;42.48;;;;;;;8.02;100.00;99345.90;2896683;79;21554;-88
2022/11/16 08:21:21;;;;;;;66.42;37.85;;;;;;;8.00;100.00;99346.05;2944730;79;20991;-88
2022/11/16 08:25:42;;;;;;;63.23;42.88;;;;;;;8.01;100.00;99356.14;2936704;78;21048;-89
2022/11/16 08:29:43;;;;;;;60.73;39.35;;;;;;;8.02;100.00;99354.34;2920490;79;21007;-89
2022/11/16 08:33:45;;;;;;;55.73;34.67;;;;;;;8.02;100.00;99353.02;2940051;79;21010;-89
2022/11/16 08:37:46;;;;;;;57.23;38.35;;;;;;;7.97;100.00;99359.56;2915417;80;21012;-89
2022/11/16 08:41:47;;;;;;;64.53;39.10;;;;;;;8.00;100.00;99360.61;2947277;79;21011;-89
2022/11/16 08:45:49;;;;;;;59.67;38.15;;;;;;;8.04;100.00;99369.62;2909692;79;21035;-89
2022/11/16 08:49:50;;;;;;;56.90;36.33;;;;;;;8.07;100.00;99369.34;2934768;79;21447;-89
2022/11/16 08:53:58;;;;;;;65.90;34.43;;;;;;;8.08;100.00;99363.92;2912269;79;21008;-89
2022/11/16 08:58:00;;;;;;;53.48;32.83;;;;;;;8.12;100.00;99364.48;2916797;79;21544;-89
2022/11/16 09:02:01;;;;;;;69.32;40.17;;;;;;;8.15;100.00;99363.73;2919733;80;20992;-89
2022/11/16 09:06:03;;;;;;;66.25;44.05;;;;;;;8.21;100.00;99362.38;2911291;80;20975;-88
2022/11/16 09:10:07;;;;;;;66.80;38.28;;;;;;;8.28;100.00;99344.95;2942456;79;21513;-89
2022/11/16 09:14:08;;;;;;;73.15;40.60;;;;;;;8.37;100.00;99345.97;2928736;79;21042;-90
2022/11/16 09:18:09;;;;;;;79.45;40.70;;;;;;;8.35;100.00;99351.04;2881650;79;21094;-89
2022/11/16 09:22:11;;;;;;;68.95;43.17;;;;;;;8.26;100.00;99342.94;2879122;80;21030;-89
2022/11/16 09:26:12;;;;;;;73.72;43.92;;;;;;;8.22;100.00;99339.36;2934861;79;21479;-88
2022/11/16 09:30:15;;;;;;;73.60;41.33;;;;;;;8.20;100.00;99337.33;2935576;79;21058;-89
2022/11/16 09:34:16;;;;;;;78.47;41.73;;;;;;;8.16;100.00;99336.78;2918029;79;21087;-89
2022/11/16 09:38:17;;;;;;;66.17;39.88;;;;;;;8.19;100.00;99342.27;2925061;79;21537;-89
2022/11/16 09:42:33;;;;;;;66.85;40.45;;;;;;;8.19;100.00;99339.63;2952711;78;21037;-89
2022/11/16 09:46:48;;;;;;;77.20;41.77;;;;;;;8.21;100.00;99351.78;2932927;79;21107;-89
2022/11/16 09:51:07;;;;;;;70.22;37.08;;;;;;;8.15;100.00;99331.95;2926710;79;21510;-88
2022/11/16 09:55:23;;;;;;;64.75;35.28;;;;;;;8.17;100.00;99334.95;2911588;79;21059;-89
2022/11/16 09:59:29;;;;;;;61.77;36.50;;;;;;;8.11;100.00;99321.75;2955707;79;20998;-89
2022/11/16 10:03:34;;;;;;;;;;;;;;;8.05;100.00;99320.47;2919628;79;21551;-88
2022/11/16 10:07:53;;;;;;;63.68;37.13;;;;;;;8.05;100.00;99322.30;2880631;79;20089;-89
2022/11/16 10:12:16;;;;;;;65.47;35.73;;;;;;;7.99;100.00;99315.71;2923474;78;21028;-88
2022/11/16 10:16:38;;;;;;;74.75;43.55;;;;;;;7.93;100.00;99318.40;2907875;79;21007;-92
2022/11/16 10:21:07;;;;;;;56.90;33.92;;;;;;;7.95;100.00;99318.28;2934180;79;20963;-91
2022/11/16 10:25:19;;;;;;;71.57;34.73;;;;;;;7.86;100.00;99310.64;2927378;78;21074;-90
2022/11/16 10:29:26;;;;;;;68.57;35.03;;;;;;;7.78;100.00;99311.80;2904794;78;21059;-90
2022/11/16 10:33:34;;;;;;;64.45;30.02;;;;;;;7.76;100.00;99303.12;2764461;84;21063;-86
2022/11/16 10:37:42;;;;;;;63.05;32.17;;;;;;;7.66;100.00;99304.40;2754259;83;21078;-87
2022/11/16 10:41:49;;;;;;;67.37;35.08;;;;;;;7.55;100.00;99304.84;2772057;84;21638;-88
2022/11/16 10:46:24;;;;;;;67.60;33.42;;;;;;;7.45;100.00;99301.28;2777462;83;21042;-89
2022/11/16 10:50:33;;;;;;;48.78;33.55;;;;;;;7.40;100.00;99299.52;2804707;82;21654;-88
2022/11/16 10:54:35;;;;;;;67.25;37.50;;;;;;;7.36;100.00;99307.37;2777143;83;21116;-89
2022/11/16 10:58:56;;;;;;;60.05;33.25;;;;;;;7.32;100.00;99299.34;2762485;82;21048;-89
2022/11/16 11:02:57;;;;;;;68.17;36.73;;;;;;;7.34;100.00;99297.41;2782376;83;21096;-89
2022/11/16 11:07:24;;;;;;;58.98;35.33;;;;;;;7.40;100.00;99287.61;2776143;84;20969;-88
2022/11/16 11:15:46;;;;;;;50.38;30.48;;;;;;;7.46;100.00;99280.47;2954186;79;20964;-89
2022/11/16 11:20:00;;;;;;;52.55;26.42;;;;;;;7.42;100.00;99280.38;2937092;79;20987;-88
2022/11/16 11:24:04;;;;;;;50.35;30.72;;;;;;;7.45;100.00;99280.12;2937610;79;21002;-88
2022/11/16 11:28:23;;;;;;;61.33;29.98;;;;;;;7.37;100.00;99278.16;2895972;79;20972;-88
2022/11/16 11:32:31;;;;;;;42.40;26.48;;;;;;;7.41;100.00;99284.00;2925290;78;21086;-87
2022/11/16 11:36:41;;;;;;;39.10;22.05;;;;;;;7.44;100.00;99273.15;2938192;79;21622;-87
2022/11/16 11:40:48;;;;;;;42.23;23.73;;;;;;;7.47;100.00;99281.33;2942282;78;21488;-88
2022/11/16 11:44:57;;;;;;;39.45;22.50;;;;;;;7.48;100.00;99266.66;2919939;79;21154;-87
2022/11/16 11:49:21;;;;;;;44.25;22.77;;;;;;;7.47;100.00;99263.66;2948277;78;21054;-89
2022/11/16 11:53:50;;;;;;;37.30;21.17;;;;;;;7.42;100.00;99256.57;2802916;83;21027;-88
2022/11/16 11:57:53;;;;;;;36.10;21.52;;;;;;;7.45;100.00;99250.19;2710668;85;21016;-87
2022/11/16 12:02:36;;;;;;;33.38;22.75;;;;;;;7.48;100.00;99248.60;2696769;86;21036;-88
2022/11/16 12:06:58;;;;;;;40.43;23.18;;;;;;;7.54;100.00;99248.91;2691618;85;21762;-87
2022/11/16 12:11:19;;;;;;;41.75;23.85;;;;;;;7.60;100.00;99236.12;2698473;86;21004;-89
2022/11/16 12:15:38;;;;;;;67.17;38.73;;;;;;;7.62;100.00;99228.88;2700602;87;21693;-89
2022/11/16 12:20:27;;;;;;;62.55;37.83;;;;;;;7.62;100.00;99224.91;2676951;86;21001;-88
2022/11/16 12:24:52;;;;;;;77.35;44.08;;;;;;;7.51;100.00;99228.48;2679365;87;21054;-88
2022/11/16 12:29:21;;;;;;;50.70;30.37;;;;;;;7.54;100.00;99226.42;2737718;81;20984;-89
2022/11/16 12:33:39;;;;;;;55.98;32.88;;;;;;;7.58;100.00;99221.21;2875067;79;21601;-88
2022/11/16 12:38:08;;;;;;;51.50;32.03;;;;;;;7.58;100.00;99213.77;2891565;78;21570;-89
2022/11/16 12:42:24;;;;;;;51.30;29.98;;;;;;;7.61;100.00;99216.15;2939528;79;20991;-88
2022/11/16 12:46:56;;;;;;;46.50;28.67;;;;;;;7.57;100.00;99234.09;2888459;81;21478;-88
2022/11/16 12:51:09;;;;;;;88.87;55.95;;;;;;;7.58;100.00;99237.09;2813892;80;21053;-89
2022/11/16 12:55:55;;;;;;;133.97;73.47;;;;;;;7.58;100.00;99243.70;2948795;78;21007;-89
2022/11/16 13:00:10;;;;;;;31.93;21.80;;;;;;;7.65;100.00;99255.08;2921753;78;21538;-89
2022/11/16 13:04:39;;;;;;;35.50;21.95;;;;;;;7.66;100.00;99248.81;2920637;78;21047;-88
2022/11/16 13:08:49;;;;;;;37.28;21.85;;;;;;;7.69;100.00;99256.52;2917613;79;21578;-88
2022/11/16 13:12:58;;;;;;;32.45;19.92;;;;;;;7.69;100.00;99259.16;2911630;79;21134;-86
2022/11/16 13:17:01;;;;;;;29.90;17.75;;;;;;;7.74;100.00;99260.92;2927025;79;21551;-87
2022/11/16 13:21:23;;;;;;;26.50;18.75;;;;;;;7.74;100.00;99254.77;2920065;79;21000;-89
2022/11/16 13:25:32;;;;;;;30.82;20.05;;;;;;;7.72;100.00;99249.13;2814087;82;21087;-92
2022/11/16 13:29:51;;;;;;;30.23;21.20;;;;;;;7.71;100.00;99250.59;2723335;85;20979;-93
2022/11/16 13:34:00;;;;;;;43.42;25.90;;;;;;;7.69;100.00;99248.07;2754045;84;21032;-94
2022/11/16 13:38:02;;;;;;;52.13;31.65;;;;;;;7.64;100.00;99247.64;2752360;84;21072;-90
2022/11/16 13:42:12;;;;;;;32.25;19.42;;;;;;;7.63;100.00;99241.14;2739052;84;21382;-91
2022/11/16 13:46:14;;;;;;;29.18;18.50;;;;;;;7.54;100.00;99231.72;2724201;85;21001;-87
2022/11/16 13:50:26;;;;;;;33.55;20.17;;;;;;;7.51;100.00;99229.34;2700616;85;21438;-87
2022/11/16 13:54:40;;;;;;;28.62;19.92;;;;;;;7.46;100.00;99230.70;2740928;84;21051;-87
2022/11/16 13:58:51;;;;;;;29.52;20.12;;;;;;;7.34;100.00;99233.41;2736003;82;21595;-84
2022/11/16 14:03:20;;;;;;;38.23;23.47;;;;;;;7.33;100.00;99229.09;2862103;82;20979;-86
2022/11/16 14:07:48;;;;;;;40.20;25.35;;;;;;;7.26;100.00;99226.13;2932043;79;21693;-86
2022/11/16 14:11:47;;;;;;;50.33;29.42;;;;;;;7.22;100.00;99228.68;2937270;79;21011;-87
2022/11/16 14:15:54;;;;;;;49.42;29.85;;;;;;;7.19;100.00;99222.34;2895767;80;21004;-87
2022/11/16 14:19:55;;;;;;;53.40;31.95;;;;;;;7.19;100.00;99224.16;2908022;79;21611;-87
2022/11/16 14:24:23;;;;;;;42.30;27.73;;;;;;;7.18;100.00;99221.98;2945317;79;20983;-86
2022/11/16 14:28:48;;;;;;;42.30;25.32;;;;;;;7.15;100.00;99222.25;2918167;79;21099;-86
2022/11/16 14:32:52;;;;;;;36.15;22.42;;;;;;;7.15;100.00;99218.28;2932278;78;20976;-86
2022/11/16 14:36:54;;;;;;;33.40;21.65;;;;;;;7.18;100.00;99223.30;2944325;79;21602;-86
2022/11/16 14:40:56;;;;;;;29.52;18.73;;;;;;;7.15;100.00;99220.92;2935182;79;20988;-86
2022/11/16 14:45:06;;;;;;;37.15;23.67;;;;;;;7.17;100.00;99218.13;2930803;79;21004;-86
2022/11/16 14:49:12;;;;;;;43.28;26.12;;;;;;;7.21;100.00;99212.46;2926577;79;20950;-86
2022/11/16 14:53:18;;;;;;;28.07;20.40;;;;;;;7.25;100.00;99213.87;2921454;79;20992;-86
2022/11/16 14:57:22;;;;;;;26.33;16.45;;;;;;;7.26;100.00;99214.72;2890945;79;21031;-87
2022/11/16 15:01:34;;;;;;;25.95;15.05;;;;;;;7.25;100.00;99205.11;2950445;79;21005;-86
2022/11/16 15:05:36;;;;;;;28.02;16.93;;;;;;;7.23;100.00;99197.30;2954926;78;21063;-87
2022/11/16 15:09:43;;;;;;;19.45;15.25;;;;;;;7.21;100.00;99201.88;2946128;79;21027;-87
2022/11/16 15:13:46;;;;;;;30.85;19.45;;;;;;;7.20;100.00;99206.81;2924979;79;21010;-88
2022/11/16 15:18:05;;;;;;;28.47;17.45;;;;;;;7.18;100.00;99204.79;2914074;79;21528;-87
2022/11/16 15:22:15;;;;;;;28.92;19.20;;;;;;;7.15;100.00;99208.52;2935604;78;21498;-87
2022/11/16 15:26:21;;;;;;;48.30;27.20;;;;;;;7.15;100.00;99198.44;2939184;79;21027;-87
2022/11/16 15:30:26;;;;;;;;;;;;;;;7.11;100.00;99193.07;2941971;78;21063;-87
2022/11/16 15:34:27;;;;;;;35.03;22.10;;;;;;;7.08;100.00;99190.69;2936706;79;20555;-86
2022/11/16 15:38:31;;;;;;;39.42;25.20;;;;;;;7.04;100.00;99191.89;2856042;80;21641;-86
2022/11/16 15:42:33;;;;;;;38.05;23.87;;;;;;;7.00;100.00;99197.45;2803648;80;21000;-86
2022/11/16 15:46:35;;;;;;;31.17;17.67;;;;;;;6.99;100.00;99201.06;2863347;78;20996;-87
2022/11/16 15:50:36;;;;;;;35.05;25.08;;;;;;;6.92;100.00;99202.55;2960556;78;20987;-87
2022/11/16 15:59:00;;;;;;;29.80;22.05;;;;;;;6.80;100.00;99203.57;2926010;79;21024;-87
2022/11/16 16:03:07;;;;;;;32.17;21.48;;;;;;;6.84;100.00;99207.63;2911245;79;21645;-87
2022/11/16 16:07:09;;;;;;;40.55;27.48;;;;;;;6.81;100.00;99204.78;2928354;79;21069;-86
2022/11/16 16:11:19;;;;;;;41.45;23.02;;;;;;;6.88;100.00;99198.97;2909519;79;21008;-85
2022/11/16 16:15:30;;;;;;;29.00;19.73;;;;;;;6.86;100.00;99200.41;2923990;79;21055;-85
2022/11/16 16:19:39;;;;;;;33.78;19.52;;;;;;;6.91;100.00;99200.87;2904467;79;21039;-85
2022/11/16 16:23:48;;;;;;;33.15;18.85;;;;;;;6.90;100.00;99201.85;2973012;78;20991;-86
2022/11/16 16:27:49;;;;;;;26.10;16.30;;;;;;;6.87;100.00;99206.05;2895837;79;21118;-86
2022/11/16 16:31:54;;;;;;;34.48;21.68;;;;;;;6.87;100.00;99212.66;2925155;79;21179;-86
2022/11/16 16:35:56;;;;;;;42.27;19.85;;;;;;;6.87;100.00;99210.02;2886007;79;21056;-86
2022/11/16 16:39:58;;;;;;;27.87;18.77;;;;;;;6.81;100.00;99210.06;2924225;79;21073;-87
2022/11/16 16:43:59;;;;;;;24.63;15.80;;;;;;;6.88;100.00;99208.22;2932854;79;21004;-86
2022/11/16 16:48:01;;;;;;;20.25;15.80;;;;;;;6.89;100.00;99205.46;2926571;79;21039;-87
2022/11/16 16:52:03;;;;;;;22.77;15.95;;;;;;;6.89;100.00;99209.42;2882958;79;21564;-87
2022/11/16 16:56:14;;;;;;;21.17;14.03;;;;;;;6.89;100.00;99214.72;2906307;79;20988;-87
2022/11/16 17:00:16;;;;;;;25.82;16.67;;;;;;;6.88;100.00;99214.36;2942952;79;21519;-87
2022/11/16 17:04:18;;;;;;;26.35;18.48;;;;;;;6.89;100.00;99216.03;2922947;79;21039;-87
2022/11/16 17:08:20;;;;;;;27.30;16.00;;;;;;;6.91;100.00;99211.92;2929432;79;20992;-87
2022/11/16 17:12:21;;;;;;;26.55;18.17;;;;;;;6.89;100.00;99205.93;2921523;79;21000;-87
2022/11/16 17:16:22;;;;;;;24.55;17.75;;;;;;;6.92;100.00;99207.84;2893367;79;20974;-86
2022/11/16 17:20:24;;;;;;;18.67;13.75;;;;;;;6.81;100.00;99203.92;2935658;79;21009;-86
2022/11/16 17:24:25;;;;;;;18.55;12.40;;;;;;;6.75;100.00;99208.41;2916927;79;21559;-86
2022/11/16 17:28:27;;;;;;;16.62;14.25;;;;;;;6.71;100.00;99207.34;2918593;79;21011;-86
2022/11/16 17:32:29;;;;;;;15.28;10.93;;;;;;;6.61;100.00;99204.28;2915559;77;21491;-86
2022/11/16 17:36:30;;;;;;;16.30;12.63;;;;;;;6.59;100.00;99203.07;2910855;78;20979;-85
2022/11/16 17:40:32;;;;;;;13.95;11.08;;;;;;;6.56;100.00;99209.94;2895887;79;29651;-86
2022/11/16 17:44:33;;;;;;;16.60;11.35;;;;;;;6.53;100.00;99222.08;2907951;79;21597;-86
2022/11/16 17:48:36;;;;;;;19.02;10.50;;;;;;;6.40;100.00;99215.64;2865273;80;21076;-86
2022/11/16 17:52:38;;;;;;;13.68;11.90;;;;;;;6.32;100.00;99220.70;2864322;81;21595;-86
2022/11/16 17:56:39;;;;;;;14.90;10.72;;;;;;;6.26;100.00;99226.84;2815739;81;21663;-86
2022/11/16 18:00:40;;;;;;;15.50;11.15;;;;;;;6.30;100.00;99220.84;2832406;82;21048;-86
2022/11/16 18:04:42;;;;;;;19.98;12.03;;;;;;;6.27;100.00;99217.10;2848058;82;21092;-87
2022/11/16 18:08:44;;;;;;;18.48;11.75;;;;;;;6.25;100.00;99212.43;2875970;81;21015;-87
2022/11/16 18:12:45;;;;;;;16.02;12.40;;;;;;;6.28;100.00;99220.95;2945135;79;21020;-87
2022/11/16 18:16:46;;;;;;;21.62;13.40;;;;;;;6.33;100.00;99227.19;2870236;78;21519;-87
2022/11/16 18:20:49;;;;;;;20.50;13.38;;;;;;;6.36;100.00;99222.97;2952599;78;20999;-87
2022/11/16 18:24:51;;;;;;;17.12;12.98;;;;;;;6.34;100.00;99208.20;2923066;79;21521;-87
2022/11/16 18:28:52;;;;;;;17.05;9.48;;;;;;;6.38;100.00;99202.55;2935873;79;21025;-87
2022/11/16 18:32:54;;;;;;;15.25;9.73;;;;;;;6.36;100.00;99208.45;2945488;79;21000;-87
2022/11/16 18:36:56;;;;;;;17.75;7.62;;;;;;;6.27;100.00;99210.50;2952889;79;21441;-87
2022/11/16 18:41:14;;;;;;;8.13;4.00;;;;;;;6.19;100.00;99211.61;2930330;79;21399;-87
2022/11/16 18:45:15;;;;;;;12.43;7.95;;;;;;;6.11;100.00;99213.55;2919854;79;20989;-87
2022/11/16 18:49:16;;;;;;;12.20;8.65;;;;;;;6.05;100.00;99222.80;2925004;79;20983;-87
2022/11/16 18:53:18;;;;;;;10.50;7.62;;;;;;;6.08;100.00;99219.91;2943401;79;20980;-87
2022/11/16 18:57:19;;;;;;;9.25;6.75;;;;;;;6.02;100.00;99214.30;2920498;79;21007;-87
2022/11/16 19:01:24;;;;;;;10.25;6.97;;;;;;;6.04;100.00;99212.38;2909968;79;21030;-87
2022/11/16 19:05:25;;;;;;;13.32;8.40;;;;;;;6.04;100.00;99207.09;2927151;79;21094;-87
2022/11/16 19:09:26;;;;;;;11.80;7.78;;;;;;;6.05;100.00;99204.31;2954735;79;20988;-88
2022/11/16 19:13:28;;;;;;;12.73;8.78;;;;;;;6.08;100.00;99204.06;2905052;78;20987;-87
2022/11/16 19:17:29;;;;;;;13.43;9.18;;;;;;;6.09;100.00;99193.89;2910357;79;20971;-86
2022/11/16 19:21:31;;;;;;;14.70;9.10;;;;;;;6.14;100.00;99195.67;2899756;79;21850;-86
2022/11/16 19:25:32;;;;;;;10.75;7.78;;;;;;;6.19;100.00;99199.73;2927384;79;20984;-86
2022/11/16 19:29:34;;;;;;;8.70;7.80;;;;;;;6.17;100.00;99198.52;2902054;78;21044;-86
2022/11/16 19:33:36;;;;;;;9.25;7.50;;;;;;;6.18;100.00;99205.48;2933883;79;21035;-86
2022/11/16 19:37:38;;;;;;;9.20;7.70;;;;;;;6.17;100.00;99209.58;2925447;79;21000;-86
2022/11/16 19:41:39;;;;;;;13.55;9.20;;;;;;;6.17;100.00;99205.12;2915992;79;20984;-86
2022/11/16 19:45:40;;;;;;;10.72;6.47;;;;;;;6.14;100.00;99199.63;2893297;79;21047;-86
2022/11/16 19:49:42;;;;;;;6.62;5.75;;;;;;;6.09;100.00;99200.49;2877862;79;21468;-86